sensor_id;sensor_type;location;lat;lon;timestamp;P1;durP1;ratioP1;P2;durP2;ratioP2
65853;SDS011;52627;48.838;2.402;2024-01-07T00:00:08;5.30;;;2.30;;
65853;SDS011;52627;48.838;2.402;2024-01-07T00:02:36;5.80;;;2.60;;
65853;SDS011;52627;48.838;2.402;2024-01-07T00:05:04;7.20;;;2.70;;
65853;SDS011;52627;48.838;2.402;2024-01-07T00:07:31;5.50;;;2.30;;
65853;SDS011;52627;48.838;2.402;2024-01-07T00:09:58;5.80;;;2.20;;
65853;SDS011;52627;48.838;2.402;2024-01-07T00:12:25;5.40;;;2.10;;
65853;SDS011;52627;48.838;2.402;2024-01-07T00:14:52;5.70;;;2.10;;
65853;SDS011;52627;48.838;2.402;2024-01-07T00:17:18;5.20;;;2.20;;
65853;SDS011;52627;48.838;2.402;2024-01-07T00:19:45;6.30;;;2.10;;
65853;SDS011;52627;48.838;2.402;2024-01-07T00:22:12;5.40;;;1.90;;
65853;SDS011;52627;48.838;2.402;2024-01-07T00:24:39;7.40;;;2.20;;
65853;SDS011;52627;48.838;2.402;2024-01-07T00:27:06;4.60;;;1.70;;
65853;SDS011;52627;48.838;2.402;2024-01-07T00:29:34;6.10;;;2.00;;
65853;SDS011;52627;48.838;2.402;2024-01-07T00:32:02;5.40;;;1.80;;
65853;SDS011;52627;48.838;2.402;2024-01-07T00:34:29;5.40;;;1.80;;
65853;SDS011;52627;48.838;2.402;2024-01-07T00:36:56;5.30;;;2.00;;
65853;SDS011;52627;48.838;2.402;2024-01-07T00:39:23;5.30;;;1.90;;
65853;SDS011;52627;48.838;2.402;2024-01-07T00:41:50;7.60;;;2.30;;
65853;SDS011;52627;48.838;2.402;2024-01-07T00:44:16;4.00;;;1.70;;
65853;SDS011;52627;48.838;2.402;2024-01-07T00:46:43;7.40;;;1.90;;
65853;SDS011;52627;48.838;2.402;2024-01-07T00:49:14;6.70;;;1.90;;
65853;SDS011;52627;48.838;2.402;2024-01-07T00:51:43;5.00;;;2.00;;
65853;SDS011;52627;48.838;2.402;2024-01-07T00:54:10;5.60;;;1.70;;
65853;SDS011;52627;48.838;2.402;2024-01-07T00:56:37;5.00;;;1.70;;
65853;SDS011;52627;48.838;2.402;2024-01-07T00:59:03;4.60;;;2.10;;
65853;SDS011;52627;48.838;2.402;2024-01-07T01:01:31;5.80;;;1.70;;
65853;SDS011;52627;48.838;2.402;2024-01-07T01:03:58;4.30;;;1.40;;
65853;SDS011;52627;48.838;2.402;2024-01-07T01:06:25;4.30;;;1.80;;
65853;SDS011;52627;48.838;2.402;2024-01-07T01:08:52;4.10;;;1.60;;
65853;SDS011;52627;48.838;2.402;2024-01-07T01:11:19;4.70;;;1.80;;
65853;SDS011;52627;48.838;2.402;2024-01-07T01:13:46;7.10;;;1.80;;
65853;SDS011;52627;48.838;2.402;2024-01-07T01:16:13;5.10;;;1.90;;
65853;SDS011;52627;48.838;2.402;2024-01-07T01:18:40;5.30;;;1.90;;
65853;SDS011;52627;48.838;2.402;2024-01-07T01:21:06;5.70;;;1.90;;
65853;SDS011;52627;48.838;2.402;2024-01-07T01:23:34;5.90;;;1.80;;
65853;SDS011;52627;48.838;2.402;2024-01-07T01:26:01;5.50;;;1.90;;
65853;SDS011;52627;48.838;2.402;2024-01-07T01:28:28;6.80;;;2.30;;
65853;SDS011;52627;48.838;2.402;2024-01-07T01:30:54;7.60;;;1.60;;
65853;SDS011;52627;48.838;2.402;2024-01-07T01:33:21;6.20;;;1.80;;
65853;SDS011;52627;48.838;2.402;2024-01-07T01:35:49;4.30;;;1.80;;
65853;SDS011;52627;48.838;2.402;2024-01-07T01:38:16;5.30;;;1.70;;
65853;SDS011;52627;48.838;2.402;2024-01-07T01:40:43;7.30;;;1.90;;
65853;SDS011;52627;48.838;2.402;2024-01-07T01:43:10;3.00;;;1.30;;
65853;SDS011;52627;48.838;2.402;2024-01-07T01:45:37;4.00;;;1.60;;
65853;SDS011;52627;48.838;2.402;2024-01-07T01:48:04;6.60;;;2.20;;
65853;SDS011;52627;48.838;2.402;2024-01-07T01:50:31;5.10;;;1.90;;
65853;SDS011;52627;48.838;2.402;2024-01-07T01:52:58;5.40;;;1.70;;
65853;SDS011;52627;48.838;2.402;2024-01-07T01:55:25;8.70;;;1.70;;
65853;SDS011;52627;48.838;2.402;2024-01-07T01:57:52;5.00;;;1.90;;
65853;SDS011;52627;48.838;2.402;2024-01-07T02:00:21;5.70;;;1.90;;
65853;SDS011;52627;48.838;2.402;2024-01-07T02:02:47;5.60;;;1.60;;
65853;SDS011;52627;48.838;2.402;2024-01-07T02:05:14;7.00;;;1.80;;
65853;SDS011;52627;48.838;2.402;2024-01-07T02:07:41;4.80;;;1.70;;
65853;SDS011;52627;48.838;2.402;2024-01-07T02:10:08;5.90;;;1.80;;
65853;SDS011;52627;48.838;2.402;2024-01-07T02:12:35;5.90;;;1.70;;
65853;SDS011;52627;48.838;2.402;2024-01-07T02:15:02;4.70;;;2.10;;
65853;SDS011;52627;48.838;2.402;2024-01-07T02:17:29;6.20;;;2.20;;
65853;SDS011;52627;48.838;2.402;2024-01-07T02:19:56;6.90;;;1.80;;
65853;SDS011;52627;48.838;2.402;2024-01-07T02:22:23;3.40;;;1.50;;
65853;SDS011;52627;48.838;2.402;2024-01-07T02:24:50;5.40;;;1.50;;
65853;SDS011;52627;48.838;2.402;2024-01-07T02:27:17;4.60;;;1.60;;
65853;SDS011;52627;48.838;2.402;2024-01-07T02:29:44;7.40;;;1.70;;
65853;SDS011;52627;48.838;2.402;2024-01-07T02:32:10;5.40;;;1.80;;
65853;SDS011;52627;48.838;2.402;2024-01-07T02:34:37;6.10;;;1.70;;
65853;SDS011;52627;48.838;2.402;2024-01-07T02:37:04;4.10;;;1.50;;
65853;SDS011;52627;48.838;2.402;2024-01-07T02:39:31;5.80;;;1.50;;
65853;SDS011;52627;48.838;2.402;2024-01-07T02:41:58;6.20;;;1.70;;
65853;SDS011;52627;48.838;2.402;2024-01-07T02:44:25;3.80;;;1.40;;
65853;SDS011;52627;48.838;2.402;2024-01-07T02:46:52;5.90;;;1.40;;
65853;SDS011;52627;48.838;2.402;2024-01-07T02:49:18;4.80;;;1.60;;
65853;SDS011;52627;48.838;2.402;2024-01-07T02:51:45;4.90;;;1.70;;
65853;SDS011;52627;48.838;2.402;2024-01-07T02:54:16;4.40;;;1.60;;
65853;SDS011;52627;48.838;2.402;2024-01-07T02:56:43;6.00;;;1.60;;
65853;SDS011;52627;48.838;2.402;2024-01-07T02:59:10;5.20;;;1.70;;
65853;SDS011;52627;48.838;2.402;2024-01-07T03:01:36;6.00;;;1.70;;
65853;SDS011;52627;48.838;2.402;2024-01-07T03:04:09;5.40;;;1.50;;
65853;SDS011;52627;48.838;2.402;2024-01-07T03:06:36;6.00;;;2.10;;
65853;SDS011;52627;48.838;2.402;2024-01-07T03:09:03;5.60;;;1.70;;
65853;SDS011;52627;48.838;2.402;2024-01-07T03:11:30;5.10;;;1.50;;
65853;SDS011;52627;48.838;2.402;2024-01-07T03:13:57;4.70;;;1.70;;
65853;SDS011;52627;48.838;2.402;2024-01-07T03:16:25;5.90;;;1.50;;
65853;SDS011;52627;48.838;2.402;2024-01-07T03:18:52;4.50;;;1.40;;
65853;SDS011;52627;48.838;2.402;2024-01-07T03:21:21;5.00;;;1.60;;
65853;SDS011;52627;48.838;2.402;2024-01-07T03:23:50;4.00;;;1.50;;
65853;SDS011;52627;48.838;2.402;2024-01-07T03:26:19;6.10;;;1.50;;
65853;SDS011;52627;48.838;2.402;2024-01-07T03:28:47;5.80;;;1.50;;
65853;SDS011;52627;48.838;2.402;2024-01-07T03:31:15;7.40;;;1.60;;
65853;SDS011;52627;48.838;2.402;2024-01-07T03:33:42;6.70;;;1.50;;
65853;SDS011;52627;48.838;2.402;2024-01-07T03:36:11;4.30;;;1.80;;
65853;SDS011;52627;48.838;2.402;2024-01-07T03:38:39;6.10;;;1.70;;
65853;SDS011;52627;48.838;2.402;2024-01-07T03:41:07;6.60;;;1.80;;
65853;SDS011;52627;48.838;2.402;2024-01-07T03:43:34;3.90;;;1.30;;
65853;SDS011;52627;48.838;2.402;2024-01-07T03:46:01;6.80;;;1.50;;
65853;SDS011;52627;48.838;2.402;2024-01-07T03:48:28;5.50;;;1.50;;
65853;SDS011;52627;48.838;2.402;2024-01-07T03:50:55;4.00;;;1.30;;
65853;SDS011;52627;48.838;2.402;2024-01-07T03:53:21;7.00;;;1.40;;
65853;SDS011;52627;48.838;2.402;2024-01-07T03:55:48;4.40;;;1.50;;
65853;SDS011;52627;48.838;2.402;2024-01-07T03:58:15;4.70;;;1.60;;
65853;SDS011;52627;48.838;2.402;2024-01-07T04:00:42;5.40;;;1.50;;
65853;SDS011;52627;48.838;2.402;2024-01-07T04:03:09;5.60;;;1.70;;
65853;SDS011;52627;48.838;2.402;2024-01-07T04:05:36;5.90;;;1.60;;
65853;SDS011;52627;48.838;2.402;2024-01-07T04:08:04;4.20;;;1.30;;
65853;SDS011;52627;48.838;2.402;2024-01-07T04:10:31;5.70;;;1.70;;
65853;SDS011;52627;48.838;2.402;2024-01-07T04:12:58;3.90;;;1.90;;
65853;SDS011;52627;48.838;2.402;2024-01-07T04:15:25;5.50;;;1.60;;
65853;SDS011;52627;48.838;2.402;2024-01-07T04:17:52;9.20;;;1.90;;
65853;SDS011;52627;48.838;2.402;2024-01-07T04:20:20;7.50;;;1.60;;
65853;SDS011;52627;48.838;2.402;2024-01-07T04:22:47;7.50;;;2.00;;
65853;SDS011;52627;48.838;2.402;2024-01-07T04:25:13;7.40;;;1.70;;
65853;SDS011;52627;48.838;2.402;2024-01-07T04:27:40;4.50;;;1.50;;
65853;SDS011;52627;48.838;2.402;2024-01-07T04:30:07;5.20;;;1.50;;
65853;SDS011;52627;48.838;2.402;2024-01-07T04:32:34;5.50;;;1.90;;
65853;SDS011;52627;48.838;2.402;2024-01-07T04:35:01;5.40;;;1.70;;
65853;SDS011;52627;48.838;2.402;2024-01-07T04:37:28;6.80;;;1.90;;
65853;SDS011;52627;48.838;2.402;2024-01-07T04:39:55;6.50;;;2.00;;
65853;SDS011;52627;48.838;2.402;2024-01-07T04:42:22;6.50;;;1.60;;
65853;SDS011;52627;48.838;2.402;2024-01-07T04:44:49;6.50;;;1.50;;
65853;SDS011;52627;48.838;2.402;2024-01-07T04:47:32;8.20;;;1.80;;
65853;SDS011;52627;48.838;2.402;2024-01-07T04:50:03;5.60;;;1.60;;
65853;SDS011;52627;48.838;2.402;2024-01-07T04:52:31;6.50;;;1.40;;
65853;SDS011;52627;48.838;2.402;2024-01-07T04:54:57;6.20;;;1.60;;
65853;SDS011;52627;48.838;2.402;2024-01-07T04:57:24;5.90;;;1.60;;
65853;SDS011;52627;48.838;2.402;2024-01-07T04:59:51;5.80;;;1.70;;
65853;SDS011;52627;48.838;2.402;2024-01-07T05:02:19;6.10;;;1.80;;
65853;SDS011;52627;48.838;2.402;2024-01-07T05:04:46;5.10;;;1.40;;
65853;SDS011;52627;48.838;2.402;2024-01-07T05:07:13;3.60;;;1.50;;
65853;SDS011;52627;48.838;2.402;2024-01-07T05:09:40;5.50;;;1.60;;
65853;SDS011;52627;48.838;2.402;2024-01-07T05:12:07;5.70;;;1.80;;
65853;SDS011;52627;48.838;2.402;2024-01-07T05:14:33;5.00;;;1.40;;
65853;SDS011;52627;48.838;2.402;2024-01-07T05:17:00;5.00;;;1.70;;
65853;SDS011;52627;48.838;2.402;2024-01-07T05:19:27;7.40;;;1.60;;
65853;SDS011;52627;48.838;2.402;2024-01-07T05:21:55;4.90;;;1.50;;
65853;SDS011;52627;48.838;2.402;2024-01-07T05:24:22;7.40;;;2.60;;
65853;SDS011;52627;48.838;2.402;2024-01-07T05:26:48;5.90;;;1.50;;
65853;SDS011;52627;48.838;2.402;2024-01-07T05:29:15;4.50;;;1.60;;
65853;SDS011;52627;48.838;2.402;2024-01-07T05:31:42;7.60;;;1.90;;
65853;SDS011;52627;48.838;2.402;2024-01-07T05:34:09;5.20;;;1.80;;
65853;SDS011;52627;48.838;2.402;2024-01-07T05:36:36;4.50;;;1.50;;
65853;SDS011;52627;48.838;2.402;2024-01-07T05:39:03;6.90;;;1.70;;
65853;SDS011;52627;48.838;2.402;2024-01-07T05:41:31;6.80;;;1.80;;
65853;SDS011;52627;48.838;2.402;2024-01-07T05:43:58;6.60;;;1.90;;
65853;SDS011;52627;48.838;2.402;2024-01-07T05:46:24;4.70;;;1.70;;
65853;SDS011;52627;48.838;2.402;2024-01-07T05:48:51;3.60;;;1.70;;
65853;SDS011;52627;48.838;2.402;2024-01-07T05:51:18;5.40;;;1.90;;
65853;SDS011;52627;48.838;2.402;2024-01-07T05:53:45;6.60;;;1.90;;
65853;SDS011;52627;48.838;2.402;2024-01-07T05:56:13;5.10;;;1.90;;
65853;SDS011;52627;48.838;2.402;2024-01-07T05:58:40;5.40;;;2.10;;
65853;SDS011;52627;48.838;2.402;2024-01-07T06:01:08;6.40;;;2.00;;
65853;SDS011;52627;48.838;2.402;2024-01-07T06:03:35;5.70;;;1.80;;
65853;SDS011;52627;48.838;2.402;2024-01-07T06:06:02;6.00;;;2.20;;
65853;SDS011;52627;48.838;2.402;2024-01-07T06:08:30;5.10;;;1.90;;
65853;SDS011;52627;48.838;2.402;2024-01-07T06:10:56;6.40;;;1.80;;
65853;SDS011;52627;48.838;2.402;2024-01-07T06:13:23;5.30;;;2.00;;
65853;SDS011;52627;48.838;2.402;2024-01-07T06:15:50;7.40;;;2.30;;
65853;SDS011;52627;48.838;2.402;2024-01-07T06:18:18;6.10;;;2.20;;
65853;SDS011;52627;48.838;2.402;2024-01-07T06:20:45;5.90;;;1.80;;
65853;SDS011;52627;48.838;2.402;2024-01-07T06:23:12;5.60;;;1.90;;
65853;SDS011;52627;48.838;2.402;2024-01-07T06:25:38;4.20;;;1.70;;
65853;SDS011;52627;48.838;2.402;2024-01-07T06:28:06;6.30;;;2.10;;
65853;SDS011;52627;48.838;2.402;2024-01-07T06:30:33;5.60;;;1.70;;
65853;SDS011;52627;48.838;2.402;2024-01-07T06:33:00;5.40;;;2.10;;
65853;SDS011;52627;48.838;2.402;2024-01-07T06:35:28;7.00;;;2.40;;
65853;SDS011;52627;48.838;2.402;2024-01-07T06:37:55;5.30;;;2.50;;
65853;SDS011;52627;48.838;2.402;2024-01-07T06:40:21;5.30;;;2.20;;
65853;SDS011;52627;48.838;2.402;2024-01-07T06:42:49;5.50;;;2.80;;
65853;SDS011;52627;48.838;2.402;2024-01-07T06:45:17;6.00;;;2.50;;
65853;SDS011;52627;48.838;2.402;2024-01-07T06:47:44;7.20;;;2.50;;
65853;SDS011;52627;48.838;2.402;2024-01-07T06:50:11;6.60;;;2.20;;
65853;SDS011;52627;48.838;2.402;2024-01-07T06:52:38;5.10;;;2.50;;
65853;SDS011;52627;48.838;2.402;2024-01-07T06:55:05;7.40;;;2.30;;
65853;SDS011;52627;48.838;2.402;2024-01-07T06:57:32;5.30;;;2.20;;
65853;SDS011;52627;48.838;2.402;2024-01-07T06:59:59;4.00;;;2.00;;
65853;SDS011;52627;48.838;2.402;2024-01-07T07:02:26;5.80;;;2.50;;
65853;SDS011;52627;48.838;2.402;2024-01-07T07:04:53;4.40;;;2.20;;
65853;SDS011;52627;48.838;2.402;2024-01-07T07:07:20;5.80;;;2.00;;
65853;SDS011;52627;48.838;2.402;2024-01-07T07:09:47;4.10;;;2.00;;
65853;SDS011;52627;48.838;2.402;2024-01-07T07:12:13;5.80;;;2.30;;
65853;SDS011;52627;48.838;2.402;2024-01-07T07:14:40;4.90;;;1.90;;
65853;SDS011;52627;48.838;2.402;2024-01-07T07:17:07;4.90;;;2.00;;
65853;SDS011;52627;48.838;2.402;2024-01-07T07:19:34;6.70;;;2.80;;
65853;SDS011;52627;48.838;2.402;2024-01-07T07:22:01;5.50;;;2.40;;
65853;SDS011;52627;48.838;2.402;2024-01-07T07:24:28;5.80;;;2.40;;
65853;SDS011;52627;48.838;2.402;2024-01-07T07:26:55;4.80;;;2.10;;
65853;SDS011;52627;48.838;2.402;2024-01-07T07:29:21;6.90;;;2.40;;
65853;SDS011;52627;48.838;2.402;2024-01-07T07:31:48;8.10;;;2.40;;
65853;SDS011;52627;48.838;2.402;2024-01-07T07:34:15;6.80;;;2.60;;
65853;SDS011;52627;48.838;2.402;2024-01-07T07:36:42;5.10;;;2.50;;
65853;SDS011;52627;48.838;2.402;2024-01-07T07:39:13;5.90;;;2.60;;
65853;SDS011;52627;48.838;2.402;2024-01-07T07:41:41;5.30;;;2.50;;
65853;SDS011;52627;48.838;2.402;2024-01-07T07:44:08;6.10;;;2.50;;
65853;SDS011;52627;48.838;2.402;2024-01-07T07:46:35;8.10;;;2.70;;
65853;SDS011;52627;48.838;2.402;2024-01-07T07:49:01;6.70;;;2.80;;
65853;SDS011;52627;48.838;2.402;2024-01-07T07:51:29;5.30;;;2.90;;
65853;SDS011;52627;48.838;2.402;2024-01-07T07:53:56;7.10;;;3.00;;
65853;SDS011;52627;48.838;2.402;2024-01-07T07:56:23;5.00;;;2.60;;
65853;SDS011;52627;48.838;2.402;2024-01-07T07:58:50;6.10;;;3.30;;
65853;SDS011;52627;48.838;2.402;2024-01-07T08:01:17;6.10;;;2.90;;
65853;SDS011;52627;48.838;2.402;2024-01-07T08:03:45;6.90;;;3.00;;
65853;SDS011;52627;48.838;2.402;2024-01-07T08:06:12;5.10;;;2.90;;
65853;SDS011;52627;48.838;2.402;2024-01-07T08:08:39;6.70;;;3.30;;
65853;SDS011;52627;48.838;2.402;2024-01-07T08:11:06;6.70;;;3.00;;
65853;SDS011;52627;48.838;2.402;2024-01-07T08:13:35;5.00;;;3.20;;
65853;SDS011;52627;48.838;2.402;2024-01-07T08:16:04;6.10;;;3.40;;
65853;SDS011;52627;48.838;2.402;2024-01-07T08:18:32;5.70;;;3.10;;
65853;SDS011;52627;48.838;2.402;2024-01-07T08:20:59;8.70;;;4.00;;
65853;SDS011;52627;48.838;2.402;2024-01-07T08:23:27;6.90;;;3.50;;
65853;SDS011;52627;48.838;2.402;2024-01-07T08:25:53;7.60;;;3.70;;
65853;SDS011;52627;48.838;2.402;2024-01-07T08:28:20;9.30;;;3.90;;
65853;SDS011;52627;48.838;2.402;2024-01-07T08:30:47;6.70;;;3.30;;
65853;SDS011;52627;48.838;2.402;2024-01-07T08:33:15;7.00;;;3.80;;
65853;SDS011;52627;48.838;2.402;2024-01-07T08:35:42;9.20;;;3.80;;
65853;SDS011;52627;48.838;2.402;2024-01-07T08:38:09;6.20;;;3.30;;
65853;SDS011;52627;48.838;2.402;2024-01-07T08:40:36;7.90;;;3.60;;
65853;SDS011;52627;48.838;2.402;2024-01-07T08:43:04;7.00;;;3.80;;
65853;SDS011;52627;48.838;2.402;2024-01-07T08:45:30;6.80;;;3.60;;
65853;SDS011;52627;48.838;2.402;2024-01-07T08:47:57;7.80;;;4.10;;
65853;SDS011;52627;48.838;2.402;2024-01-07T08:50:24;6.80;;;3.60;;
65853;SDS011;52627;48.838;2.402;2024-01-07T08:52:51;8.20;;;3.70;;
65853;SDS011;52627;48.838;2.402;2024-01-07T08:55:18;7.10;;;4.00;;
65853;SDS011;52627;48.838;2.402;2024-01-07T08:57:45;8.40;;;3.90;;
65853;SDS011;52627;48.838;2.402;2024-01-07T09:00:15;6.30;;;3.40;;
65853;SDS011;52627;48.838;2.402;2024-01-07T09:02:43;7.70;;;3.80;;
65853;SDS011;52627;48.838;2.402;2024-01-07T09:05:10;7.80;;;4.30;;
65853;SDS011;52627;48.838;2.402;2024-01-07T09:07:38;7.10;;;3.20;;
65853;SDS011;52627;48.838;2.402;2024-01-07T09:10:05;7.20;;;3.90;;
65853;SDS011;52627;48.838;2.402;2024-01-07T09:12:37;6.20;;;3.60;;
65853;SDS011;52627;48.838;2.402;2024-01-07T09:15:05;7.40;;;4.30;;
65853;SDS011;52627;48.838;2.402;2024-01-07T09:17:38;8.30;;;4.20;;
65853;SDS011;52627;48.838;2.402;2024-01-07T09:20:06;8.30;;;4.60;;
65853;SDS011;52627;48.838;2.402;2024-01-07T09:22:34;10.90;;;4.90;;
65853;SDS011;52627;48.838;2.402;2024-01-07T09:25:02;8.60;;;4.60;;
65853;SDS011;52627;48.838;2.402;2024-01-07T09:27:30;8.30;;;4.80;;
65853;SDS011;52627;48.838;2.402;2024-01-07T09:29:58;8.50;;;5.00;;
65853;SDS011;52627;48.838;2.402;2024-01-07T09:32:25;9.60;;;4.90;;
65853;SDS011;52627;48.838;2.402;2024-01-07T09:34:52;10.10;;;4.90;;
65853;SDS011;52627;48.838;2.402;2024-01-07T09:37:20;7.60;;;4.30;;
65853;SDS011;52627;48.838;2.402;2024-01-07T09:39:46;10.20;;;5.70;;
65853;SDS011;52627;48.838;2.402;2024-01-07T09:42:15;9.30;;;5.20;;
65853;SDS011;52627;48.838;2.402;2024-01-07T09:44:44;9.00;;;5.40;;
65853;SDS011;52627;48.838;2.402;2024-01-07T09:47:12;9.00;;;5.30;;
65853;SDS011;52627;48.838;2.402;2024-01-07T09:49:40;9.00;;;5.20;;
65853;SDS011;52627;48.838;2.402;2024-01-07T09:52:09;9.80;;;5.90;;
65853;SDS011;52627;48.838;2.402;2024-01-07T09:54:39;8.90;;;5.60;;
65853;SDS011;52627;48.838;2.402;2024-01-07T09:57:07;8.70;;;5.50;;
65853;SDS011;52627;48.838;2.402;2024-01-07T09:59:35;8.30;;;5.60;;
65853;SDS011;52627;48.838;2.402;2024-01-07T10:02:03;9.30;;;6.40;;
65853;SDS011;52627;48.838;2.402;2024-01-07T10:04:30;10.50;;;5.60;;
65853;SDS011;52627;48.838;2.402;2024-01-07T10:06:58;9.70;;;6.00;;
65853;SDS011;52627;48.838;2.402;2024-01-07T10:09:30;9.50;;;6.20;;
65853;SDS011;52627;48.838;2.402;2024-01-07T10:11:59;9.70;;;5.50;;
65853;SDS011;52627;48.838;2.402;2024-01-07T10:14:27;10.40;;;5.80;;
65853;SDS011;52627;48.838;2.402;2024-01-07T10:16:55;9.30;;;5.80;;
65853;SDS011;52627;48.838;2.402;2024-01-07T10:19:23;10.10;;;5.90;;
65853;SDS011;52627;48.838;2.402;2024-01-07T10:22:02;8.10;;;5.70;;
65853;SDS011;52627;48.838;2.402;2024-01-07T10:24:38;10.10;;;5.90;;
65853;SDS011;52627;48.838;2.402;2024-01-07T10:27:07;10.60;;;5.90;;
65853;SDS011;52627;48.838;2.402;2024-01-07T10:29:35;9.80;;;6.40;;
65853;SDS011;52627;48.838;2.402;2024-01-07T10:32:02;11.40;;;5.90;;
65853;SDS011;52627;48.838;2.402;2024-01-07T10:34:34;9.60;;;6.00;;
65853;SDS011;52627;48.838;2.402;2024-01-07T10:37:03;8.20;;;5.50;;
65853;SDS011;52627;48.838;2.402;2024-01-07T10:39:34;8.80;;;5.30;;
65853;SDS011;52627;48.838;2.402;2024-01-07T10:42:02;11.30;;;5.90;;
65853;SDS011;52627;48.838;2.402;2024-01-07T10:44:31;9.10;;;5.70;;
65853;SDS011;52627;48.838;2.402;2024-01-07T10:46:59;10.50;;;5.80;;
65853;SDS011;52627;48.838;2.402;2024-01-07T10:49:27;9.60;;;6.00;;
65853;SDS011;52627;48.838;2.402;2024-01-07T10:54:31;9.80;;;6.50;;
65853;SDS011;52627;48.838;2.402;2024-01-07T10:57:07;10.70;;;6.80;;
65853;SDS011;52627;48.838;2.402;2024-01-07T10:59:39;9.90;;;6.50;;
65853;SDS011;52627;48.838;2.402;2024-01-07T11:02:08;11.40;;;6.70;;
65853;SDS011;52627;48.838;2.402;2024-01-07T11:07:19;11.60;;;7.20;;
65853;SDS011;52627;48.838;2.402;2024-01-07T11:10:10;12.10;;;8.00;;
65853;SDS011;52627;48.838;2.402;2024-01-07T11:12:39;12.60;;;7.80;;
65853;SDS011;52627;48.838;2.402;2024-01-07T11:15:06;13.00;;;8.10;;
65853;SDS011;52627;48.838;2.402;2024-01-07T11:20:18;13.70;;;8.70;;
65853;SDS011;52627;48.838;2.402;2024-01-07T11:22:46;17.60;;;9.90;;
65853;SDS011;52627;48.838;2.402;2024-01-07T11:25:31;13.40;;;8.80;;
65853;SDS011;52627;48.838;2.402;2024-01-07T11:28:01;16.70;;;9.90;;
65853;SDS011;52627;48.838;2.402;2024-01-07T11:30:28;15.50;;;9.60;;
65853;SDS011;52627;48.838;2.402;2024-01-07T11:32:57;16.70;;;10.40;;
65853;SDS011;52627;48.838;2.402;2024-01-07T11:35:53;14.00;;;9.90;;
65853;SDS011;52627;48.838;2.402;2024-01-07T11:38:23;15.70;;;9.40;;
65853;SDS011;52627;48.838;2.402;2024-01-07T11:40:50;17.20;;;9.80;;
65853;SDS011;52627;48.838;2.402;2024-01-07T11:43:17;17.90;;;11.00;;
65853;SDS011;52627;48.838;2.402;2024-01-07T11:45:45;16.60;;;10.60;;
65853;SDS011;52627;48.838;2.402;2024-01-07T11:48:12;16.00;;;10.30;;
65853;SDS011;52627;48.838;2.402;2024-01-07T11:50:39;17.30;;;10.80;;
65853;SDS011;52627;48.838;2.402;2024-01-07T11:53:06;15.60;;;10.60;;
65853;SDS011;52627;48.838;2.402;2024-01-07T11:55:35;17.10;;;11.10;;
65853;SDS011;52627;48.838;2.402;2024-01-07T11:58:03;17.40;;;11.60;;
65853;SDS011;52627;48.838;2.402;2024-01-07T12:00:31;18.40;;;11.30;;
65853;SDS011;52627;48.838;2.402;2024-01-07T12:03:00;21.80;;;13.80;;
65853;SDS011;52627;48.838;2.402;2024-01-07T12:05:30;18.40;;;12.50;;
65853;SDS011;52627;48.838;2.402;2024-01-07T12:07:57;20.60;;;12.80;;
65853;SDS011;52627;48.838;2.402;2024-01-07T12:10:24;18.40;;;12.10;;
65853;SDS011;52627;48.838;2.402;2024-01-07T12:12:51;20.80;;;12.70;;
65853;SDS011;52627;48.838;2.402;2024-01-07T12:15:20;20.90;;;13.50;;
65853;SDS011;52627;48.838;2.402;2024-01-07T12:17:57;23.30;;;14.10;;
65853;SDS011;52627;48.838;2.402;2024-01-07T12:20:27;22.40;;;13.70;;
65853;SDS011;52627;48.838;2.402;2024-01-07T12:23:05;22.80;;;13.80;;
65853;SDS011;52627;48.838;2.402;2024-01-07T12:25:33;22.80;;;13.00;;
65853;SDS011;52627;48.838;2.402;2024-01-07T12:28:01;23.10;;;13.80;;
65853;SDS011;52627;48.838;2.402;2024-01-07T12:30:28;22.30;;;13.40;;
65853;SDS011;52627;48.838;2.402;2024-01-07T12:32:57;22.40;;;14.10;;
65853;SDS011;52627;48.838;2.402;2024-01-07T12:35:25;24.40;;;14.80;;
65853;SDS011;52627;48.838;2.402;2024-01-07T12:37:53;22.60;;;14.30;;
65853;SDS011;52627;48.838;2.402;2024-01-07T12:40:20;23.20;;;14.70;;
65853;SDS011;52627;48.838;2.402;2024-01-07T12:42:47;24.50;;;15.10;;
65853;SDS011;52627;48.838;2.402;2024-01-07T12:45:16;22.90;;;14.30;;
65853;SDS011;52627;48.838;2.402;2024-01-07T12:47:43;23.20;;;14.40;;
65853;SDS011;52627;48.838;2.402;2024-01-07T12:50:12;22.60;;;15.00;;
65853;SDS011;52627;48.838;2.402;2024-01-07T12:52:39;23.50;;;15.10;;
65853;SDS011;52627;48.838;2.402;2024-01-07T12:55:07;24.40;;;14.00;;
65853;SDS011;52627;48.838;2.402;2024-01-07T12:57:34;22.10;;;13.70;;
65853;SDS011;52627;48.838;2.402;2024-01-07T13:00:03;21.60;;;14.20;;
65853;SDS011;52627;48.838;2.402;2024-01-07T13:02:33;23.10;;;14.30;;
65853;SDS011;52627;48.838;2.402;2024-01-07T13:05:01;23.40;;;14.80;;
65853;SDS011;52627;48.838;2.402;2024-01-07T13:07:28;22.90;;;14.50;;
65853;SDS011;52627;48.838;2.402;2024-01-07T13:09:55;22.00;;;14.20;;
65853;SDS011;52627;48.838;2.402;2024-01-07T13:12:22;21.40;;;14.20;;
65853;SDS011;52627;48.838;2.402;2024-01-07T13:17:20;22.30;;;14.50;;
65853;SDS011;52627;48.838;2.402;2024-01-07T13:19:47;26.70;;;15.90;;
65853;SDS011;52627;48.838;2.402;2024-01-07T13:22:14;24.80;;;16.20;;
65853;SDS011;52627;48.838;2.402;2024-01-07T13:24:41;24.20;;;14.90;;
65853;SDS011;52627;48.838;2.402;2024-01-07T13:27:08;21.60;;;14.30;;
65853;SDS011;52627;48.838;2.402;2024-01-07T13:29:35;24.40;;;15.30;;
65853;SDS011;52627;48.838;2.402;2024-01-07T13:32:01;23.20;;;13.90;;
65853;SDS011;52627;48.838;2.402;2024-01-07T13:34:28;22.30;;;14.10;;
65853;SDS011;52627;48.838;2.402;2024-01-07T13:36:56;22.60;;;15.00;;
65853;SDS011;52627;48.838;2.402;2024-01-07T13:39:23;21.60;;;14.20;;
65853;SDS011;52627;48.838;2.402;2024-01-07T13:41:50;23.60;;;16.40;;
65853;SDS011;52627;48.838;2.402;2024-01-07T13:44:17;21.20;;;13.80;;
65853;SDS011;52627;48.838;2.402;2024-01-07T13:46:45;23.30;;;14.40;;
65853;SDS011;52627;48.838;2.402;2024-01-07T13:49:13;23.00;;;14.70;;
65853;SDS011;52627;48.838;2.402;2024-01-07T13:51:41;22.60;;;13.80;;
65853;SDS011;52627;48.838;2.402;2024-01-07T13:54:09;22.30;;;14.50;;
65853;SDS011;52627;48.838;2.402;2024-01-07T13:56:43;21.70;;;13.30;;
65853;SDS011;52627;48.838;2.402;2024-01-07T13:59:11;19.20;;;13.30;;
65853;SDS011;52627;48.838;2.402;2024-01-07T14:01:38;20.30;;;12.80;;
65853;SDS011;52627;48.838;2.402;2024-01-07T14:04:05;19.70;;;13.80;;
65853;SDS011;52627;48.838;2.402;2024-01-07T14:06:33;19.00;;;13.00;;
65853;SDS011;52627;48.838;2.402;2024-01-07T14:09:00;18.00;;;12.30;;
65853;SDS011;52627;48.838;2.402;2024-01-07T14:11:27;18.90;;;13.10;;
65853;SDS011;52627;48.838;2.402;2024-01-07T14:13:54;17.60;;;12.50;;
65853;SDS011;52627;48.838;2.402;2024-01-07T14:16:21;18.30;;;12.40;;
65853;SDS011;52627;48.838;2.402;2024-01-07T14:18:48;17.50;;;13.10;;
65853;SDS011;52627;48.838;2.402;2024-01-07T14:21:15;17.70;;;12.60;;
65853;SDS011;52627;48.838;2.402;2024-01-07T14:23:42;20.00;;;12.00;;
65853;SDS011;52627;48.838;2.402;2024-01-07T14:26:09;17.80;;;12.70;;
65853;SDS011;52627;48.838;2.402;2024-01-07T14:28:36;19.30;;;12.40;;
65853;SDS011;52627;48.838;2.402;2024-01-07T14:31:03;18.20;;;12.70;;
65853;SDS011;52627;48.838;2.402;2024-01-07T14:33:30;17.50;;;12.80;;
65853;SDS011;52627;48.838;2.402;2024-01-07T14:35:57;19.00;;;13.30;;
65853;SDS011;52627;48.838;2.402;2024-01-07T14:38:24;18.90;;;13.30;;
65853;SDS011;52627;48.838;2.402;2024-01-07T14:40:52;16.90;;;12.70;;
65853;SDS011;52627;48.838;2.402;2024-01-07T14:43:18;20.00;;;13.40;;
65853;SDS011;52627;48.838;2.402;2024-01-07T14:45:45;19.60;;;14.30;;
65853;SDS011;52627;48.838;2.402;2024-01-07T14:48:12;19.50;;;14.40;;
65853;SDS011;52627;48.838;2.402;2024-01-07T14:50:40;18.90;;;13.00;;
65853;SDS011;52627;48.838;2.402;2024-01-07T14:53:08;19.10;;;13.50;;